To NAV CANADA Home Page Login to a new session Search on AWWS site Disclaimer Vers la page française équivalente Tips FAQ What's new on the site To the Forecasts and Observations / NOTAM section To "File a Flight Plan" website Publications and other links Update of the User's profile FIC Telephone Numbers My Weather Data Folder Route Weather Data Regional Weather Data Local Weather Data To the Forecasts and Observations / NOTAM section
Request Generated 01/21/2021 at 00:56:18 UTC . Weather information available at that time is displayed.

METAR/TAF

TORONTO/BILLY BISHOP TORONTO CITY AIRPORT/ON    (show WxCam)

METAR CYTZ 210000Z AUTO 24014KT 9SM BKN033 BKN170 OVC200 M04/M09 A3000 RMK SLP163=
METAR CYTZ 202300Z AUTO 24012KT 9SM OVC035 M03/M10 A3001 RMK SLP169=
METAR CYTZ 202200Z AUTO 24007KT 9SM OVC036 M04/M10 A3003 RMK SLP178=

TAF CYTZ 201941Z 2020/2120 25012KT P6SM BKN040 BKN150
FM210600 23015G30KT 4SM -SN OVC025
FM210700 23015G30KT 21/2SM -SN OVC020
FM211100 24015G30KT P6SM -SHSN SCT020 BKN030
RMK FCST BASED ON AUTO OBS. NXT FCST BY 210200Z=
Your time UTC time
Weather data provided by Environment Canada and NAV CANADA